createdAt,value
2023-01-28T00:00:03.245Z,2.55
2023-01-28T00:02:33.648Z,2.46
2023-01-28T00:05:02.099Z,2.38
2023-01-28T00:07:30.823Z,2.34
2023-01-28T00:09:59.305Z,2.39
2023-01-28T00:12:27.699Z,2.40
2023-01-28T00:14:56.171Z,2.21
2023-01-28T00:17:25.951Z,2.25
2023-01-28T00:19:54.398Z,2.38
2023-01-28T00:22:22.952Z,2.21
2023-01-28T00:24:51.310Z,2.02
2023-01-28T00:27:19.812Z,1.91
2023-01-28T00:29:48.555Z,1.97
2023-01-28T00:32:17.155Z,2.07
2023-01-28T00:34:47.081Z,2.21
2023-01-28T00:37:15.704Z,2.09
2023-01-28T00:39:44.132Z,1.94
2023-01-28T00:42:12.614Z,2.23
2023-01-28T00:44:41.041Z,2.33
2023-01-28T00:47:09.758Z,1.43
2023-01-28T00:49:38.227Z,2.12
2023-01-28T00:52:08.105Z,2.25
2023-01-28T00:54:38.733Z,1.42
2023-01-28T01:03:54.476Z,2.07
2023-01-28T01:06:23.817Z,1.77
2023-01-28T01:08:53.665Z,2.03
2023-01-28T01:11:22.261Z,1.99
2023-01-28T01:13:56.778Z,2.34
2023-01-28T01:16:28.830Z,2.20
2023-01-28T01:18:59.281Z,1.89
2023-01-28T01:21:29.907Z,1.91
2023-01-28T01:24:00.154Z,2.02
2023-01-28T01:26:28.928Z,0.40
2023-01-28T01:28:59.307Z,0.58
2023-01-28T01:31:27.794Z,2.01
2023-01-28T01:33:56.415Z,2.31
2023-01-28T01:36:24.993Z,1.89
2023-01-28T01:38:56.027Z,2.01
2023-01-28T01:41:29.856Z,1.79
2023-01-28T01:44:01.081Z,2.06
2023-01-28T01:46:41.061Z,1.80
2023-01-28T01:49:18.483Z,1.39
2023-01-28T01:51:50.357Z,1.96
2023-01-28T01:54:19.842Z,1.65
2023-01-28T01:56:51.802Z,2.12
2023-01-28T01:59:25.939Z,1.88
2023-01-28T02:01:55.382Z,1.92
2023-01-28T02:04:30.886Z,1.99
2023-01-28T02:07:02.602Z,1.32
2023-01-28T02:09:34.393Z,1.86
2023-01-28T02:12:09.670Z,1.74
2023-01-28T02:14:45.694Z,0.72
2023-01-28T02:17:14.891Z,1.78
2023-01-28T02:19:52.674Z,1.72
2023-01-28T02:23:21.994Z,1.27
2023-01-28T02:26:33.624Z,1.05
2023-01-28T02:29:13.166Z,0.35
2023-01-28T02:31:47.817Z,1.34
2023-01-28T02:34:26.418Z,1.10
2023-01-28T02:37:01.137Z,1.09
2023-01-28T02:39:36.652Z,1.54
2023-01-28T02:42:10.592Z,1.81
2023-01-28T02:44:41.260Z,0.84
2023-01-28T02:47:29.880Z,1.70
2023-01-28T02:50:03.201Z,1.64
2023-01-28T02:53:13.429Z,1.46
2023-01-28T02:55:52.870Z,1.70
2023-01-28T02:58:28.911Z,1.53
2023-01-28T03:01:12.114Z,1.59
2023-01-28T03:03:52.326Z,1.40
2023-01-28T03:06:25.145Z,1.42
2023-01-28T03:09:15.218Z,1.22
2023-01-28T03:12:04.724Z,1.45
2023-01-28T03:14:53.512Z,1.48
2023-01-28T03:17:47.097Z,0.96
2023-01-28T03:20:34.946Z,1.05
2023-01-28T03:23:30.018Z,0.97
2023-01-28T03:26:20.103Z,1.32
2023-01-28T03:29:08.270Z,1.38
2023-01-28T03:31:55.629Z,1.49
2023-01-28T03:34:42.899Z,1.61
2023-01-28T03:37:14.781Z,1.52
2023-01-28T03:39:51.937Z,1.48
2023-01-28T03:42:20.781Z,0.79
2023-01-28T03:45:16.390Z,1.41
2023-01-28T03:47:47.631Z,1.55
2023-01-28T03:50:18.827Z,1.50
2023-01-28T03:53:14.943Z,1.57
2023-01-28T03:55:50.991Z,1.48
2023-01-28T03:58:20.399Z,1.56
2023-01-28T04:00:49.128Z,0.86
2023-01-28T04:03:21.242Z,1.29
2023-01-28T04:06:03.577Z,1.71
2023-01-28T04:08:53.198Z,1.79
2023-01-28T04:11:31.410Z,1.91
2023-01-28T04:14:02.879Z,1.68
2023-01-28T04:16:45.149Z,1.45
2023-01-28T04:19:14.566Z,1.55
2023-01-28T04:21:45.281Z,1.62
2023-01-28T04:24:14.495Z,1.29
2023-01-28T04:26:43.422Z,0.74
2023-01-28T04:29:11.814Z,1.58
2023-01-28T04:31:40.699Z,1.50
2023-01-28T04:34:44.468Z,1.36
2023-01-28T04:37:30.400Z,1.23
2023-01-28T04:40:14.926Z,1.39
2023-01-28T04:42:58.835Z,1.19
2023-01-28T04:45:39.339Z,1.27
2023-01-28T04:48:23.757Z,1.13
2023-01-28T04:51:10.819Z,1.38
2023-01-28T04:53:48.562Z,1.07
2023-01-28T04:56:26.713Z,1.43
2023-01-28T04:58:55.408Z,0.86
2023-01-28T05:01:25.123Z,0.86
2023-01-28T05:03:54.398Z,0.77
2023-01-28T05:06:26.499Z,0.77
2023-01-28T05:08:59.319Z,0.63
2023-01-28T05:11:28.900Z,1.00
2023-01-28T05:14:01.116Z,1.10
2023-01-28T05:16:35.314Z,1.54
2023-01-28T05:19:05.227Z,0.29
2023-01-28T05:21:37.647Z,1.55
2023-01-28T05:24:12.347Z,1.28
2023-01-28T05:26:40.906Z,1.19
2023-01-28T05:29:09.547Z,0.54
2023-01-28T05:31:38.210Z,1.37
2023-01-28T05:34:06.623Z,1.26
2023-01-28T05:36:35.015Z,1.47
2023-01-28T05:39:10.973Z,1.50
2023-01-28T05:41:39.764Z,0.52
2023-01-28T05:44:08.373Z,1.59
2023-01-28T05:46:55.386Z,1.74
2023-01-28T05:49:44.013Z,1.77
2023-01-28T05:52:29.215Z,1.88
2023-01-28T05:55:00.007Z,1.69
2023-01-28T05:57:28.705Z,1.88
2023-01-28T05:59:57.339Z,1.87
2023-01-28T06:02:26.227Z,1.89
2023-01-28T06:04:58.261Z,1.89
2023-01-28T06:07:26.680Z,1.76
2023-01-28T06:09:55.303Z,1.60
2023-01-28T06:12:25.206Z,1.62
2023-01-28T06:15:13.126Z,1.64
2023-01-28T06:18:00.983Z,1.27
2023-01-28T06:20:32.952Z,1.41
2023-01-28T06:23:02.642Z,1.73
2023-01-28T06:25:31.006Z,1.74
2023-01-28T06:28:06.119Z,1.26
2023-01-28T06:30:34.679Z,1.11
2023-01-28T06:33:03.074Z,1.13
2023-01-28T06:35:31.508Z,1.35
2023-01-28T06:37:59.910Z,0.97
2023-01-28T06:40:28.283Z,1.03
2023-01-28T06:42:56.667Z,1.15
2023-01-28T06:45:28.329Z,0.92
2023-01-28T06:47:56.840Z,1.06
2023-01-28T06:50:25.699Z,0.80
2023-01-28T06:52:54.424Z,1.00
2023-01-28T06:55:22.749Z,1.24
2023-01-28T06:57:51.124Z,1.15
2023-01-28T07:00:21.123Z,0.84
2023-01-28T07:02:51.301Z,1.04
2023-01-28T07:05:20.082Z,0.92
2023-01-28T07:07:48.745Z,0.79
2023-01-28T07:10:18.132Z,0.52
2023-01-28T07:12:46.636Z,0.83
2023-01-28T07:15:16.295Z,0.76
2023-01-28T07:17:45.173Z,0.80
2023-01-28T07:20:17.460Z,0.64
2023-01-28T07:22:46.873Z,0.75
2023-01-28T07:25:16.347Z,0.77
2023-01-28T07:27:50.379Z,0.73
2023-01-28T07:30:20.720Z,0.74
2023-01-28T07:32:54.141Z,0.74
2023-01-28T07:35:24.678Z,1.05
2023-01-28T07:37:54.479Z,0.46
2023-01-28T07:40:23.260Z,0.98
2023-01-28T07:42:52.630Z,1.33
2023-01-28T07:45:25.202Z,1.28
2023-01-28T07:47:58.437Z,1.32
2023-01-28T07:50:30.038Z,1.19
2023-01-28T07:52:58.861Z,1.09
2023-01-28T07:55:30.987Z,1.11
2023-01-28T07:58:01.589Z,1.02
2023-01-28T08:00:33.469Z,0.73
2023-01-28T08:03:04.825Z,1.09
2023-01-28T08:05:41.718Z,1.01
2023-01-28T08:08:11.036Z,1.05
2023-01-28T08:10:40.350Z,0.97
2023-01-28T08:13:11.460Z,1.27
2023-01-28T08:15:40.300Z,1.10
2023-01-28T08:18:13.035Z,1.06
2023-01-28T08:20:44.878Z,1.23
2023-01-28T08:23:16.122Z,1.47
2023-01-28T08:25:45.122Z,1.33
2023-01-28T08:28:14.353Z,1.38
2023-01-28T08:30:43.966Z,1.73
2023-01-28T08:33:15.210Z,1.72
2023-01-28T08:35:45.695Z,1.66
2023-01-28T08:38:16.252Z,1.70
2023-01-28T08:40:44.847Z,1.67
2023-01-28T08:43:13.438Z,1.33
2023-01-28T08:45:42.575Z,1.99
2023-01-28T08:48:15.999Z,1.71
2023-01-28T08:50:46.304Z,2.04
2023-01-28T08:53:17.138Z,1.99
2023-01-28T08:55:46.509Z,2.14
2023-01-28T08:58:18.147Z,1.81
2023-01-28T09:00:47.744Z,1.44
2023-01-28T09:03:16.533Z,1.17
2023-01-28T09:05:46.616Z,2.17
2023-01-28T09:08:16.717Z,1.66
2023-01-28T09:10:45.347Z,1.40
2023-01-28T09:13:16.471Z,1.65
2023-01-28T09:15:45.527Z,2.05
2023-01-28T09:18:14.104Z,1.83
2023-01-28T09:20:43.220Z,1.95
2023-01-28T09:23:14.467Z,1.54
2023-01-28T09:25:43.141Z,1.59
2023-01-28T09:28:11.622Z,1.42
2023-01-28T09:30:40.136Z,1.09
2023-01-28T09:33:09.278Z,1.84
2023-01-28T09:35:38.211Z,2.06
2023-01-28T09:38:06.703Z,2.30
2023-01-28T09:40:43.610Z,2.49
2023-01-28T09:43:45.065Z,2.53
2023-01-28T09:46:18.514Z,1.86
2023-01-28T09:48:50.440Z,1.89
2023-01-28T09:51:35.179Z,1.79
2023-01-28T09:54:13.744Z,2.09
2023-01-28T09:56:47.616Z,1.50
2023-01-28T09:59:20.789Z,1.68
2023-01-28T10:02:01.155Z,1.24
2023-01-28T10:04:49.661Z,1.96
2023-01-28T10:07:33.207Z,1.98
2023-01-28T10:10:11.063Z,1.02
2023-01-28T10:13:03.965Z,1.50
2023-01-28T10:16:05.768Z,1.12
2023-01-28T10:18:43.455Z,1.69
2023-01-28T10:21:19.913Z,1.37
2023-01-28T10:23:58.847Z,2.08
2023-01-28T10:26:34.106Z,1.52
2023-01-28T10:29:14.068Z,1.53
2023-01-28T10:31:53.274Z,1.68
2023-01-28T10:34:23.589Z,2.38
2023-01-28T10:36:55.726Z,2.66
2023-01-28T10:39:26.965Z,3.03
2023-01-28T10:41:58.551Z,2.65
2023-01-28T10:44:39.517Z,3.40
2023-01-28T10:47:16.725Z,3.57
2023-01-28T10:49:53.023Z,3.65
2023-01-28T10:52:21.529Z,3.61
2023-01-28T10:55:00.443Z,3.56
2023-01-28T10:57:29.699Z,3.71
2023-01-28T10:59:59.607Z,3.97
2023-01-28T11:02:37.571Z,3.44
2023-01-28T11:05:16.943Z,3.52
2023-01-28T11:07:45.566Z,3.05
2023-01-28T11:10:32.618Z,4.17
2023-01-28T11:13:04.111Z,4.39
2023-01-28T11:15:34.774Z,4.45
2023-01-28T11:18:08.807Z,4.25
2023-01-28T11:20:43.729Z,4.51
2023-01-28T11:23:22.786Z,4.72
2023-01-28T11:26:00.513Z,4.84
2023-01-28T11:28:29.423Z,4.29
2023-01-28T11:31:03.171Z,5.13
2023-01-28T11:33:40.606Z,4.32
2023-01-28T11:36:16.518Z,5.34
2023-01-28T11:38:54.728Z,4.54
2023-01-28T11:41:30.742Z,4.53
2023-01-28T11:44:14.551Z,5.05
2023-01-28T11:47:08.357Z,5.62
2023-01-28T11:49:58.476Z,4.90
2023-01-28T11:53:04.463Z,5.57
2023-01-28T11:55:56.335Z,5.42
2023-01-28T11:58:35.359Z,5.32
2023-01-28T12:01:11.021Z,5.53
2023-01-28T12:04:18.585Z,5.64
2023-01-28T12:07:22.176Z,5.86
2023-01-28T12:10:02.065Z,5.92
2023-01-28T12:12:55.155Z,6.05
2023-01-28T12:15:52.446Z,5.87
2023-01-28T12:18:38.489Z,5.60
2023-01-28T12:21:17.104Z,5.58
2023-01-28T12:24:04.518Z,5.51
2023-01-28T12:26:43.678Z,5.29
2023-01-28T12:29:28.256Z,4.81
2023-01-28T12:32:22.681Z,4.96
2023-01-28T12:35:21.737Z,5.07
2023-01-28T12:38:03.858Z,4.90
2023-01-28T12:41:04.184Z,5.25
2023-01-28T12:43:48.104Z,5.03
2023-01-28T12:46:42.525Z,4.69
2023-01-28T12:49:20.422Z,4.87
2023-01-28T12:52:00.162Z,4.93
2023-01-28T12:54:38.358Z,5.06
2023-01-28T12:57:09.381Z,4.99
2023-01-28T12:59:45.440Z,4.92
2023-01-28T13:02:28.432Z,5.45
2023-01-28T13:05:05.955Z,5.36
2023-01-28T13:07:42.346Z,5.28
2023-01-28T13:10:23.012Z,5.40
2023-01-28T13:12:52.218Z,5.68
2023-01-28T13:15:21.988Z,5.29
2023-01-28T13:17:59.201Z,5.32
2023-01-28T13:20:40.552Z,4.86
2023-01-28T13:23:26.292Z,5.26
2023-01-28T13:26:00.374Z,5.20
2023-01-28T13:28:32.701Z,5.15
2023-01-28T13:31:07.233Z,5.26
2023-01-28T13:33:38.947Z,5.25
2023-01-28T13:36:25.771Z,5.56
2023-01-28T13:39:04.082Z,5.41
2023-01-28T13:41:46.254Z,5.74
2023-01-28T13:44:28.747Z,5.56
2023-01-28T13:47:00.685Z,5.82
2023-01-28T13:49:39.132Z,5.71
2023-01-28T13:52:16.527Z,5.55
2023-01-28T13:54:53.087Z,5.67
2023-01-28T13:58:42.367Z,6.02
2023-01-28T14:02:04.405Z,6.26
2023-01-28T14:04:57.948Z,6.39
2023-01-28T14:08:17.204Z,6.28
2023-01-28T14:11:01.555Z,6.66
2023-01-28T14:13:59.088Z,6.89
2023-01-28T14:16:39.668Z,6.54
2023-01-28T14:19:14.046Z,6.53
2023-01-28T14:21:42.748Z,6.54
2023-01-28T14:24:18.558Z,6.64
2023-01-28T14:27:03.875Z,6.43
2023-01-28T14:29:57.018Z,6.36
2023-01-28T14:32:30.663Z,6.23
2023-01-28T14:35:03.300Z,5.96
2023-01-28T14:37:34.069Z,6.20
2023-01-28T14:40:05.844Z,6.22
2023-01-28T14:42:41.063Z,6.30
2023-01-28T14:45:29.241Z,6.20
2023-01-28T14:48:22.377Z,6.26
2023-01-28T14:51:18.796Z,6.13
2023-01-28T14:54:36.324Z,6.11
2023-01-28T14:57:36.253Z,5.60
2023-01-28T15:00:19.135Z,5.63
2023-01-28T15:02:47.855Z,4.88
2023-01-28T15:05:19.833Z,5.44
2023-01-28T15:07:49.645Z,5.54
2023-01-28T15:10:22.806Z,5.56
2023-01-28T15:12:56.035Z,5.57
2023-01-28T15:15:32.834Z,5.44
2023-01-28T15:18:05.604Z,5.25
2023-01-28T15:20:34.513Z,5.19
2023-01-28T15:23:04.565Z,5.16
2023-01-28T15:25:32.991Z,5.25
2023-01-28T15:28:02.913Z,5.00
2023-01-28T15:30:33.920Z,4.68
2023-01-28T15:33:06.819Z,4.42
2023-01-28T15:35:37.604Z,4.71
2023-01-28T15:38:06.644Z,4.63
2023-01-28T15:40:44.195Z,4.17
2023-01-28T15:43:21.864Z,4.26
2023-01-28T15:45:55.920Z,4.04
2023-01-28T15:48:26.914Z,4.05
2023-01-28T15:51:07.221Z,3.50
2023-01-28T15:53:43.770Z,3.80
2023-01-28T15:56:14.599Z,3.52
2023-01-28T15:58:44.139Z,3.50
2023-01-28T16:01:20.021Z,3.38
2023-01-28T16:04:03.950Z,3.26
2023-01-28T16:06:37.113Z,3.16
2023-01-28T16:09:08.583Z,3.33
2023-01-28T16:11:44.805Z,2.92
2023-01-28T16:14:24.350Z,2.69
2023-01-28T16:16:55.876Z,3.13
2023-01-28T16:19:35.925Z,2.64
2023-01-28T16:22:04.685Z,3.05
2023-01-28T16:24:36.894Z,3.18
2023-01-28T16:27:08.312Z,2.99
2023-01-28T16:29:37.422Z,3.14
2023-01-28T16:32:30.592Z,2.85
2023-01-28T16:35:01.018Z,3.23
2023-01-28T16:37:29.649Z,3.20
2023-01-28T16:40:00.298Z,2.73
2023-01-28T16:42:32.342Z,2.78
2023-01-28T16:45:00.946Z,3.00
2023-01-28T16:47:30.732Z,2.62
2023-01-28T16:49:59.414Z,3.02
2023-01-28T16:52:28.191Z,2.98
2023-01-28T16:54:56.701Z,3.02
2023-01-28T16:57:25.159Z,2.65
2023-01-28T16:59:53.553Z,2.76
2023-01-28T17:02:22.105Z,3.00
2023-01-28T17:04:51.927Z,3.07
2023-01-28T17:07:20.288Z,3.08
2023-01-28T17:09:48.715Z,3.12
2023-01-28T17:12:17.139Z,3.08
2023-01-28T17:14:45.548Z,2.73
2023-01-28T17:17:13.988Z,3.07
2023-01-28T17:19:42.376Z,2.90
2023-01-28T17:22:12.225Z,2.80
2023-01-28T17:24:40.712Z,2.81
2023-01-28T17:27:09.769Z,2.69
2023-01-28T17:29:38.148Z,2.82
2023-01-28T17:32:07.560Z,2.68
2023-01-28T17:34:35.927Z,2.54
2023-01-28T17:37:04.591Z,2.76
2023-01-28T17:39:34.255Z,2.31
2023-01-28T17:42:02.939Z,2.34
2023-01-28T17:44:32.282Z,2.43
2023-01-28T17:47:00.751Z,2.59
2023-01-28T17:49:29.107Z,2.57
2023-01-28T17:51:57.483Z,2.39
2023-01-28T17:54:26.788Z,2.66
2023-01-28T17:56:56.616Z,2.67
2023-01-28T17:59:25.881Z,2.55
2023-01-28T18:01:55.372Z,2.75
2023-01-28T18:04:25.334Z,2.67
2023-01-28T18:06:53.816Z,2.65
2023-01-28T18:09:22.373Z,2.29
2023-01-28T18:11:50.938Z,2.50
2023-01-28T18:14:20.744Z,2.10
2023-01-28T18:16:49.276Z,1.87
2023-01-28T18:19:17.665Z,2.51
2023-01-28T18:21:53.008Z,2.32
2023-01-28T18:24:23.695Z,2.05
2023-01-28T18:26:55.337Z,1.77
2023-01-28T18:29:25.747Z,2.11
2023-01-28T18:31:56.142Z,1.91
2023-01-28T18:34:25.949Z,1.98
2023-01-28T18:36:54.974Z,1.78
2023-01-28T18:39:23.746Z,1.83
2023-01-28T18:41:54.964Z,1.92
2023-01-28T18:44:27.280Z,1.78
2023-01-28T18:46:56.131Z,2.07
2023-01-28T18:49:24.818Z,1.59
2023-01-28T18:51:54.044Z,1.84
2023-01-28T18:54:23.308Z,1.62
2023-01-28T18:56:51.944Z,1.74
2023-01-28T18:59:23.455Z,1.55
2023-01-28T19:01:53.507Z,1.39
2023-01-28T19:04:22.353Z,1.33
2023-01-28T19:06:50.942Z,1.50
2023-01-28T19:09:19.372Z,1.55
2023-01-28T19:11:48.484Z,1.59
2023-01-28T19:14:17.580Z,1.41
2023-01-28T19:16:46.971Z,1.37
2023-01-28T19:19:16.750Z,1.43
2023-01-28T19:21:45.315Z,1.72
2023-01-28T19:24:15.008Z,1.57
2023-01-28T19:26:44.980Z,1.48
2023-01-28T19:29:15.950Z,1.74
2023-01-28T19:31:48.568Z,1.67
2023-01-28T19:34:18.677Z,0.57
2023-01-28T19:36:47.597Z,1.69
2023-01-28T19:39:16.682Z,1.56
2023-01-28T19:41:45.993Z,1.69
2023-01-28T19:44:14.819Z,1.60
2023-01-28T19:46:43.785Z,1.82
2023-01-28T19:49:13.069Z,1.93
2023-01-28T19:51:43.629Z,1.99
2023-01-28T19:54:12.928Z,1.57
2023-01-28T19:56:41.487Z,1.70
2023-01-28T19:59:10.200Z,1.73
2023-01-28T20:01:38.735Z,1.94
2023-01-28T20:04:07.449Z,1.96
2023-01-28T20:06:37.526Z,1.62
2023-01-28T20:09:15.127Z,1.52
2023-01-28T20:11:43.531Z,1.55
2023-01-28T20:14:11.942Z,1.48
2023-01-28T20:16:40.377Z,1.82
2023-01-28T20:19:15.852Z,1.86
2023-01-28T20:21:45.204Z,1.52
2023-01-28T20:24:16.329Z,1.55
2023-01-28T20:26:45.634Z,1.84
2023-01-28T20:29:17.733Z,1.86
2023-01-28T20:31:57.477Z,1.64
2023-01-28T20:34:37.712Z,1.47
2023-01-28T20:37:06.674Z,0.57
2023-01-28T20:39:36.583Z,1.57
2023-01-28T20:42:06.305Z,1.45
2023-01-28T20:44:34.814Z,1.50
2023-01-28T20:47:03.668Z,1.38
2023-01-28T20:49:32.355Z,1.58
2023-01-28T20:52:00.797Z,1.47
2023-01-28T20:54:29.412Z,1.40
2023-01-28T20:56:59.123Z,1.09
2023-01-28T20:59:29.248Z,1.41
2023-01-28T21:01:57.647Z,1.66
2023-01-28T21:04:26.276Z,1.21
2023-01-28T21:06:54.633Z,1.73
2023-01-28T21:09:25.491Z,1.79
2023-01-28T21:11:53.893Z,1.86
2023-01-28T21:14:23.977Z,1.41
2023-01-28T21:16:53.166Z,1.96
2023-01-28T21:19:21.853Z,1.70
2023-01-28T21:21:50.451Z,1.92
2023-01-28T21:24:19.080Z,1.75
2023-01-28T21:26:47.504Z,1.84
2023-01-28T21:29:17.429Z,1.90
2023-01-28T21:31:47.778Z,1.02
2023-01-28T21:34:16.903Z,1.68
2023-01-28T21:36:45.489Z,1.76
2023-01-28T21:39:16.413Z,1.49
2023-01-28T21:41:46.056Z,1.58
2023-01-28T21:44:14.430Z,1.85
2023-01-28T21:46:42.892Z,1.86
2023-01-28T21:49:12.955Z,1.70
2023-01-28T21:51:46.337Z,1.89
2023-01-28T21:54:17.346Z,1.81
2023-01-28T21:56:46.587Z,1.96
2023-01-28T21:59:32.544Z,1.58
2023-01-28T22:02:03.573Z,1.86
2023-01-28T22:04:36.162Z,1.86
2023-01-28T22:07:07.155Z,1.89
2023-01-28T22:09:36.103Z,1.56
2023-01-28T22:12:07.854Z,1.31
2023-01-28T22:14:36.674Z,1.52
2023-01-28T22:17:07.305Z,1.45
2023-01-28T22:19:37.113Z,1.40
2023-01-28T22:22:06.289Z,1.31
2023-01-28T22:24:34.887Z,1.29
2023-01-28T22:27:03.570Z,1.39
2023-01-28T22:29:32.014Z,1.38
2023-01-28T22:32:00.476Z,1.15
2023-01-28T22:34:29.029Z,1.00
2023-01-28T22:36:58.830Z,1.22
2023-01-28T22:39:27.394Z,1.31
2023-01-28T22:41:55.811Z,1.10
2023-01-28T22:44:24.151Z,0.77
2023-01-28T22:46:52.723Z,1.21
2023-01-28T22:49:22.117Z,1.21
2023-01-28T22:51:50.511Z,0.85
2023-01-28T22:54:20.215Z,0.68
2023-01-28T22:56:48.618Z,0.86
2023-01-28T22:59:17.003Z,0.84
2023-01-28T23:01:45.474Z,0.91
2023-01-28T23:04:13.901Z,0.93
2023-01-28T23:06:42.197Z,0.63
2023-01-28T23:09:10.817Z,0.91
2023-01-28T23:11:40.558Z,0.87
2023-01-28T23:14:26.416Z,0.36
2023-01-28T23:17:12.234Z,0.68
2023-01-28T23:19:58.120Z,0.39
2023-01-28T23:22:49.978Z,0.52
2023-01-28T23:25:19.304Z,0.47
2023-01-28T23:27:49.045Z,0.64
2023-01-28T23:30:19.800Z,0.31
2023-01-28T23:32:50.642Z,0.65
2023-01-28T23:35:20.261Z,0.68
2023-01-28T23:37:49.443Z,0.58
2023-01-28T23:40:18.914Z,0.29
2023-01-28T23:42:52.685Z,0.43
2023-01-28T23:45:22.565Z,0.42
2023-01-28T23:47:52.407Z,0.75
2023-01-28T23:50:21.015Z,0.61
2023-01-28T23:52:49.424Z,0.73
2023-01-28T23:55:18.006Z,0.70
2023-01-28T23:57:46.408Z,0.57
